sensor_id;sensor_type;location;lat;lon;timestamp;pressure;altitude;pressure_sealevel;temperature;humidity
20624;BME280;10471;42.736;23.346;2023-10-13T00:01:33;96045.56;;;10.03;100.00
20624;BME280;10471;42.736;23.346;2023-10-13T00:03:59;96041.59;;;10.00;100.00
20624;BME280;10471;42.736;23.346;2023-10-13T00:06:24;96042.28;;;9.91;100.00
20624;BME280;10471;42.736;23.346;2023-10-13T00:08:52;96039.34;;;9.87;100.00
20624;BME280;10471;42.736;23.346;2023-10-13T00:11:17;96045.38;;;9.83;100.00
20624;BME280;10471;42.736;23.346;2023-10-13T00:13:44;96038.25;;;9.78;100.00
20624;BME280;10471;42.736;23.346;2023-10-13T00:16:20;96031.41;;;9.77;100.00
20624;BME280;10471;42.736;23.346;2023-10-13T00:18:56;96039.00;;;9.74;100.00
20624;BME280;10471;42.736;23.346;2023-10-13T00:21:23;96035.31;;;9.70;100.00
20624;BME280;10471;42.736;23.346;2023-10-13T00:23:59;96032.13;;;9.68;100.00
20624;BME280;10471;42.736;23.346;2023-10-13T00:26:27;96027.84;;;9.62;100.00
20624;BME280;10471;42.736;23.346;2023-10-13T00:28:57;96042.09;;;9.61;100.00
20624;BME280;10471;42.736;23.346;2023-10-13T00:31:36;96036.00;;;9.61;100.00
20624;BME280;10471;42.736;23.346;2023-10-13T00:34:03;96037.00;;;9.55;100.00
20624;BME280;10471;42.736;23.346;2023-10-13T00:36:44;96039.59;;;9.50;100.00
20624;BME280;10471;42.736;23.346;2023-10-13T00:39:28;96037.44;;;9.42;100.00
20624;BME280;10471;42.736;23.346;2023-10-13T00:41:54;96044.00;;;9.39;100.00
20624;BME280;10471;42.736;23.346;2023-10-13T00:44:33;96038.44;;;9.36;100.00
20624;BME280;10471;42.736;23.346;2023-10-13T00:47:09;96036.84;;;9.35;100.00
20624;BME280;10471;42.736;23.346;2023-10-13T00:49:36;96032.09;;;9.32;100.00
20624;BME280;10471;42.736;23.346;2023-10-13T00:52:06;96042.03;;;9.25;100.00
20624;BME280;10471;42.736;23.346;2023-10-13T00:54:34;96043.88;;;9.24;100.00
20624;BME280;10471;42.736;23.346;2023-10-13T00:57:01;96046.47;;;9.19;100.00
20624;BME280;10471;42.736;23.346;2023-10-13T00:59:36;96045.31;;;9.11;100.00
20624;BME280;10471;42.736;23.346;2023-10-13T01:02:02;96043.63;;;9.00;100.00
20624;BME280;10471;42.736;23.346;2023-10-13T01:04:48;96037.38;;;9.06;100.00
20624;BME280;10471;42.736;23.346;2023-10-13T01:07:14;96036.28;;;9.02;100.00
20624;BME280;10471;42.736;23.346;2023-10-13T01:09:44;96036.28;;;9.02;100.00
20624;BME280;10471;42.736;23.346;2023-10-13T01:12:12;96048.50;;;9.13;100.00
20624;BME280;10471;42.736;23.346;2023-10-13T01:14:37;96047.22;;;9.15;100.00
20624;BME280;10471;42.736;23.346;2023-10-13T01:17:03;96044.31;;;9.16;100.00
20624;BME280;10471;42.736;23.346;2023-10-13T01:19:29;96052.97;;;9.12;100.00
20624;BME280;10471;42.736;23.346;2023-10-13T01:21:55;96044.28;;;9.12;100.00
20624;BME280;10471;42.736;23.346;2023-10-13T01:24:32;96049.50;;;9.07;100.00
20624;BME280;10471;42.736;23.346;2023-10-13T01:27:01;96049.19;;;9.03;100.00
20624;BME280;10471;42.736;23.346;2023-10-13T01:29:42;96052.56;;;8.99;100.00
20624;BME280;10471;42.736;23.346;2023-10-13T01:32:13;96059.34;;;8.95;100.00
20624;BME280;10471;42.736;23.346;2023-10-13T01:34:38;96056.66;;;8.90;100.00
20624;BME280;10471;42.736;23.346;2023-10-13T01:37:03;96055.84;;;8.84;100.00
20624;BME280;10471;42.736;23.346;2023-10-13T01:39:31;96058.16;;;8.81;100.00
20624;BME280;10471;42.736;23.346;2023-10-13T01:41:57;96059.66;;;8.72;100.00
20624;BME280;10471;42.736;23.346;2023-10-13T01:44:26;96061.19;;;8.68;100.00
20624;BME280;10471;42.736;23.346;2023-10-13T01:47:01;96061.66;;;8.65;100.00
20624;BME280;10471;42.736;23.346;2023-10-13T01:49:32;96064.22;;;8.60;100.00
20624;BME280;10471;42.736;23.346;2023-10-13T01:52:07;96058.13;;;8.54;100.00
20624;BME280;10471;42.736;23.346;2023-10-13T01:54:36;96059.41;;;8.52;100.00
20624;BME280;10471;42.736;23.346;2023-10-13T01:57:06;96061.72;;;8.48;100.00
20624;BME280;10471;42.736;23.346;2023-10-13T01:59:31;96063.03;;;8.46;100.00
20624;BME280;10471;42.736;23.346;2023-10-13T02:01:57;96052.97;;;8.43;100.00
20624;BME280;10471;42.736;23.346;2023-10-13T02:04:26;96055.56;;;8.38;100.00
20624;BME280;10471;42.736;23.346;2023-10-13T02:06:52;96057.66;;;8.36;100.00
20624;BME280;10471;42.736;23.346;2023-10-13T02:09:17;96054.97;;;8.31;100.00
20624;BME280;10471;42.736;23.346;2023-10-13T02:11:51;96050.19;;;8.28;100.00
20624;BME280;10471;42.736;23.346;2023-10-13T02:14:21;96052.28;;;8.26;100.00
20624;BME280;10471;42.736;23.346;2023-10-13T02:16:48;96058.25;;;8.22;100.00
20624;BME280;10471;42.736;23.346;2023-10-13T02:19:16;96051.66;;;8.19;100.00
20624;BME280;10471;42.736;23.346;2023-10-13T02:21:44;96041.16;;;8.19;100.00
20624;BME280;10471;42.736;23.346;2023-10-13T02:24:11;96047.91;;;8.15;100.00
20624;BME280;10471;42.736;23.346;2023-10-13T02:26:44;96052.69;;;8.18;100.00
20624;BME280;10471;42.736;23.346;2023-10-13T02:29:09;96053.25;;;8.20;100.00
20624;BME280;10471;42.736;23.346;2023-10-13T02:31:39;96046.34;;;8.14;100.00
20624;BME280;10471;42.736;23.346;2023-10-13T02:34:05;96056.22;;;8.12;100.00
20624;BME280;10471;42.736;23.346;2023-10-13T02:36:38;96054.66;;;8.11;100.00
20624;BME280;10471;42.736;23.346;2023-10-13T02:39:19;96057.69;;;8.03;100.00
20624;BME280;10471;42.736;23.346;2023-10-13T02:41:50;96053.97;;;7.99;100.00
20624;BME280;10471;42.736;23.346;2023-10-13T02:44:16;96063.91;;;7.97;100.00
20624;BME280;10471;42.736;23.346;2023-10-13T02:46:58;96068.31;;;7.92;100.00
20624;BME280;10471;42.736;23.346;2023-10-13T02:49:27;96054.78;;;7.83;100.00
20624;BME280;10471;42.736;23.346;2023-10-13T02:51:56;96063.13;;;7.80;100.00
20624;BME280;10471;42.736;23.346;2023-10-13T02:54:24;96055.25;;;7.80;100.00
20624;BME280;10471;42.736;23.346;2023-10-13T02:56:55;96055.81;;;7.82;100.00
20624;BME280;10471;42.736;23.346;2023-10-13T02:59:27;96063.69;;;7.82;100.00
20624;BME280;10471;42.736;23.346;2023-10-13T03:02:08;96054.22;;;7.81;100.00
20624;BME280;10471;42.736;23.346;2023-10-13T03:04:52;96067.84;;;7.79;100.00
20624;BME280;10471;42.736;23.346;2023-10-13T03:07:17;96069.91;;;7.77;100.00
20624;BME280;10471;42.736;23.346;2023-10-13T03:09:50;96071.97;;;7.75;100.00
20624;BME280;10471;42.736;23.346;2023-10-13T03:12:18;96081.13;;;7.72;100.00
20624;BME280;10471;42.736;23.346;2023-10-13T03:14:44;96076.09;;;7.71;100.00
20624;BME280;10471;42.736;23.346;2023-10-13T03:17:21;96076.03;;;7.66;100.00
20624;BME280;10471;42.736;23.346;2023-10-13T03:19:53;96071.25;;;7.63;100.00
20624;BME280;10471;42.736;23.346;2023-10-13T03:22:20;96070.69;;;7.61;100.00
20624;BME280;10471;42.736;23.346;2023-10-13T03:24:57;96075.88;;;7.56;100.00
20624;BME280;10471;42.736;23.346;2023-10-13T03:27:30;96074.19;;;7.50;100.00
20624;BME280;10471;42.736;23.346;2023-10-13T03:30:16;96074.13;;;7.45;100.00
20624;BME280;10471;42.736;23.346;2023-10-13T03:32:42;96080.09;;;7.40;100.00
20624;BME280;10471;42.736;23.346;2023-10-13T03:35:22;96064.03;;;7.37;100.00
20624;BME280;10471;42.736;23.346;2023-10-13T03:37:51;96069.75;;;7.34;100.00
20624;BME280;10471;42.736;23.346;2023-10-13T03:40:17;96067.13;;;7.34;100.00
20624;BME280;10471;42.736;23.346;2023-10-13T03:42:58;96065.56;;;7.33;100.00
20624;BME280;10471;42.736;23.346;2023-10-13T03:45:34;96060.31;;;7.33;100.00
20624;BME280;10471;42.736;23.346;2023-10-13T03:48:08;96050.28;;;7.30;100.00
20624;BME280;10471;42.736;23.346;2023-10-13T03:51:02;96050.53;;;7.28;100.00
20624;BME280;10471;42.736;23.346;2023-10-13T03:53:39;96048.69;;;7.29;100.00
20624;BME280;10471;42.736;23.346;2023-10-13T03:56:27;96041.63;;;7.29;100.00
20624;BME280;10471;42.736;23.346;2023-10-13T03:58:55;96044.00;;;7.31;100.00
20624;BME280;10471;42.736;23.346;2023-10-13T04:01:26;96049.50;;;7.29;100.00
20624;BME280;10471;42.736;23.346;2023-10-13T04:04:00;96048.69;;;7.29;100.00
20624;BME280;10471;42.736;23.346;2023-10-13T04:06:30;96052.13;;;7.29;100.00
20624;BME280;10471;42.736;23.346;2023-10-13T04:09:23;96039.72;;;7.25;100.00
20624;BME280;10471;42.736;23.346;2023-10-13T04:12:01;96041.56;;;7.24;100.00
20624;BME280;10471;42.736;23.346;2023-10-13T04:14:32;96044.41;;;7.23;100.00
20624;BME280;10471;42.736;23.346;2023-10-13T04:17:16;96044.88;;;7.20;100.00
20624;BME280;10471;42.736;23.346;2023-10-13T04:19:51;96040.13;;;7.17;100.00
20624;BME280;10471;42.736;23.346;2023-10-13T04:22:39;96050.44;;;7.07;100.00
20624;BME280;10471;42.736;23.346;2023-10-13T04:25:16;96047.00;;;7.07;100.00
20624;BME280;10471;42.736;23.346;2023-10-13T04:28:08;96058.06;;;7.09;100.00
20624;BME280;10471;42.736;23.346;2023-10-13T04:30:47;96058.38;;;7.12;100.00
20624;BME280;10471;42.736;23.346;2023-10-13T04:33:13;96054.53;;;7.03;100.00
20624;BME280;10471;42.736;23.346;2023-10-13T04:36:11;96055.69;;;7.07;100.00
20624;BME280;10471;42.736;23.346;2023-10-13T04:38:54;96057.72;;;7.05;100.00
20624;BME280;10471;42.736;23.346;2023-10-13T04:41:32;96061.38;;;7.04;100.00
20624;BME280;10471;42.736;23.346;2023-10-13T04:44:14;96066.59;;;7.04;100.00
20624;BME280;10471;42.736;23.346;2023-10-13T04:46:55;96072.41;;;7.06;100.00
20624;BME280;10471;42.736;23.346;2023-10-13T04:49:31;96072.50;;;7.11;100.00
20624;BME280;10471;42.736;23.346;2023-10-13T04:52:01;96063.84;;;7.11;100.00
20624;BME280;10471;42.736;23.346;2023-10-13T04:54:37;96075.66;;;7.13;100.00
20624;BME280;10471;42.736;23.346;2023-10-13T04:57:13;96081.97;;;7.12;100.00
20624;BME280;10471;42.736;23.346;2023-10-13T04:59:57;96082.09;;;7.06;100.00
20624;BME280;10471;42.736;23.346;2023-10-13T05:02:39;96089.81;;;7.12;100.00
20624;BME280;10471;42.736;23.346;2023-10-13T05:05:12;96095.59;;;7.14;100.00
20624;BME280;10471;42.736;23.346;2023-10-13T05:08:07;96098.66;;;7.22;100.00
20624;BME280;10471;42.736;23.346;2023-10-13T05:10:51;96093.50;;;7.27;100.00
20624;BME280;10471;42.736;23.346;2023-10-13T05:13:35;96102.25;;;7.33;100.00
20624;BME280;10471;42.736;23.346;2023-10-13T05:16:19;96097.63;;;7.40;100.00
20624;BME280;10471;42.736;23.346;2023-10-13T05:19:03;96108.19;;;7.45;100.00
20624;BME280;10471;42.736;23.346;2023-10-13T05:21:47;96116.31;;;7.60;100.00
20624;BME280;10471;42.736;23.346;2023-10-13T05:24:31;96122.44;;;7.65;100.00
20624;BME280;10471;42.736;23.346;2023-10-13T05:27:15;96125.63;;;7.67;100.00
20624;BME280;10471;42.736;23.346;2023-10-13T05:29:58;96117.19;;;7.81;100.00
20624;BME280;10471;42.736;23.346;2023-10-13T05:32:42;96129.50;;;7.97;100.00
20624;BME280;10471;42.736;23.346;2023-10-13T05:35:26;96139.63;;;8.05;100.00
20624;BME280;10471;42.736;23.346;2023-10-13T05:38:21;96134.88;;;8.19;100.00
20624;BME280;10471;42.736;23.346;2023-10-13T05:41:05;96137.84;;;8.27;100.00
20624;BME280;10471;42.736;23.346;2023-10-13T05:43:49;96130.66;;;8.39;100.00
20624;BME280;10471;42.736;23.346;2023-10-13T05:46:33;96141.31;;;8.49;100.00
20624;BME280;10471;42.736;23.346;2023-10-13T05:49:04;96147.00;;;8.62;100.00
20624;BME280;10471;42.736;23.346;2023-10-13T05:51:41;96143.72;;;8.72;100.00
20624;BME280;10471;42.736;23.346;2023-10-13T05:54:07;96149.50;;;8.74;100.00
20624;BME280;10471;42.736;23.346;2023-10-13T05:56:42;96148.00;;;8.78;100.00
20624;BME280;10471;42.736;23.346;2023-10-13T05:59:26;96146.78;;;8.85;100.00
20624;BME280;10471;42.736;23.346;2023-10-13T06:02:11;96149.28;;;8.97;100.00
20624;BME280;10471;42.736;23.346;2023-10-13T06:04:56;96159.59;;;9.03;100.00
20624;BME280;10471;42.736;23.346;2023-10-13T06:07:40;96146.81;;;9.12;100.00
20624;BME280;10471;42.736;23.346;2023-10-13T06:10:23;96138.00;;;9.22;100.00
20624;BME280;10471;42.736;23.346;2023-10-13T06:13:07;96134.16;;;9.35;100.00
20624;BME280;10471;42.736;23.346;2023-10-13T06:15:51;96147.47;;;9.50;100.00
20624;BME280;10471;42.736;23.346;2023-10-13T06:18:35;96151.56;;;9.67;100.00
20624;BME280;10471;42.736;23.346;2023-10-13T06:21:22;96165.66;;;9.82;100.00
20624;BME280;10471;42.736;23.346;2023-10-13T06:24:07;96163.19;;;9.97;100.00
20624;BME280;10471;42.736;23.346;2023-10-13T06:26:51;96164.13;;;10.13;100.00
20624;BME280;10471;42.736;23.346;2023-10-13T06:29:35;96160.41;;;10.14;100.00
20624;BME280;10471;42.736;23.346;2023-10-13T06:32:00;96158.41;;;10.26;100.00
20624;BME280;10471;42.736;23.346;2023-10-13T06:34:27;96165.88;;;10.39;100.00
20624;BME280;10471;42.736;23.346;2023-10-13T06:37:12;96169.31;;;10.44;100.00
20624;BME280;10471;42.736;23.346;2023-10-13T06:40:00;96168.63;;;10.58;100.00
20624;BME280;10471;42.736;23.346;2023-10-13T06:42:39;96162.66;;;10.73;100.00
20624;BME280;10471;42.736;23.346;2023-10-13T06:45:09;96161.91;;;10.87;100.00
20624;BME280;10471;42.736;23.346;2023-10-13T06:47:35;96172.00;;;10.95;100.00
20624;BME280;10471;42.736;23.346;2023-10-13T06:50:12;96169.69;;;11.13;100.00
20624;BME280;10471;42.736;23.346;2023-10-13T06:52:44;96175.25;;;11.17;100.00
20624;BME280;10471;42.736;23.346;2023-10-13T06:55:10;96166.78;;;11.15;100.00
20624;BME280;10471;42.736;23.346;2023-10-13T06:57:42;96150.72;;;11.21;100.00
20624;BME280;10471;42.736;23.346;2023-10-13T07:00:10;96141.50;;;11.29;100.00
20624;BME280;10471;42.736;23.346;2023-10-13T07:02:45;96137.31;;;11.43;100.00
20624;BME280;10471;42.736;23.346;2023-10-13T07:05:12;96142.13;;;11.61;100.00
20624;BME280;10471;42.736;23.346;2023-10-13T07:07:39;96135.53;;;11.73;100.00
20624;BME280;10471;42.736;23.346;2023-10-13T07:10:12;96146.66;;;11.85;100.00
20624;BME280;10471;42.736;23.346;2023-10-13T07:12:39;96148.50;;;11.99;100.00
20624;BME280;10471;42.736;23.346;2023-10-13T07:15:11;96158.03;;;12.10;100.00
20624;BME280;10471;42.736;23.346;2023-10-13T07:17:47;96160.66;;;12.20;100.00
20624;BME280;10471;42.736;23.346;2023-10-13T07:20:18;96154.03;;;12.33;100.00
20624;BME280;10471;42.736;23.346;2023-10-13T07:22:57;96157.97;;;12.45;100.00
20624;BME280;10471;42.736;23.346;2023-10-13T07:25:32;96153.72;;;12.59;100.00
20624;BME280;10471;42.736;23.346;2023-10-13T07:28:06;96149.97;;;12.80;100.00
20624;BME280;10471;42.736;23.346;2023-10-13T07:30:35;96147.59;;;12.88;100.00
20624;BME280;10471;42.736;23.346;2023-10-13T07:33:19;96150.44;;;13.07;100.00
20624;BME280;10471;42.736;23.346;2023-10-13T07:36:00;96141.34;;;13.22;100.00
20624;BME280;10471;42.736;23.346;2023-10-13T07:38:26;96138.13;;;13.30;100.00
20624;BME280;10471;42.736;23.346;2023-10-13T07:40:56;96133.81;;;13.49;100.00
20624;BME280;10471;42.736;23.346;2023-10-13T07:43:25;96122.59;;;13.62;100.00
20624;BME280;10471;42.736;23.346;2023-10-13T07:45:52;96127.78;;;13.77;100.00
20624;BME280;10471;42.736;23.346;2023-10-13T07:48:23;96135.13;;;13.90;100.00
20624;BME280;10471;42.736;23.346;2023-10-13T07:51:00;96136.88;;;14.04;100.00
20624;BME280;10471;42.736;23.346;2023-10-13T07:53:27;96134.13;;;14.19;100.00
20624;BME280;10471;42.736;23.346;2023-10-13T07:55:53;96131.00;;;14.41;100.00
20624;BME280;10471;42.736;23.346;2023-10-13T07:58:23;96124.94;;;14.63;100.00
20624;BME280;10471;42.736;23.346;2023-10-13T08:00:52;96131.16;;;14.77;100.00
20624;BME280;10471;42.736;23.346;2023-10-13T08:03:35;96133.13;;;14.90;100.00
20624;BME280;10471;42.736;23.346;2023-10-13T08:06:08;96124.72;;;15.07;100.00
20624;BME280;10471;42.736;23.346;2023-10-13T08:08:37;96115.09;;;15.34;100.00
20624;BME280;10471;42.736;23.346;2023-10-13T08:11:07;96116.31;;;15.60;100.00
20624;BME280;10471;42.736;23.346;2023-10-13T08:13:59;96125.72;;;15.71;100.00
20624;BME280;10471;42.736;23.346;2023-10-13T08:16:29;96123.97;;;15.79;100.00
20624;BME280;10471;42.736;23.346;2023-10-13T08:19:12;96132.53;;;15.95;100.00
20624;BME280;10471;42.736;23.346;2023-10-13T08:21:40;96127.66;;;16.15;100.00
20624;BME280;10471;42.736;23.346;2023-10-13T08:24:14;96133.22;;;16.19;100.00
20624;BME280;10471;42.736;23.346;2023-10-13T08:26:41;96139.19;;;16.29;100.00
20624;BME280;10471;42.736;23.346;2023-10-13T08:29:24;96138.16;;;16.43;100.00
20624;BME280;10471;42.736;23.346;2023-10-13T08:31:54;96136.50;;;16.61;100.00
20624;BME280;10471;42.736;23.346;2023-10-13T08:34:29;96121.94;;;16.72;100.00
20624;BME280;10471;42.736;23.346;2023-10-13T08:37:06;96122.03;;;16.94;100.00
20624;BME280;10471;42.736;23.346;2023-10-13T08:39:47;96120.53;;;17.14;100.00
20624;BME280;10471;42.736;23.346;2023-10-13T08:42:38;96116.28;;;17.40;100.00
20624;BME280;10471;42.736;23.346;2023-10-13T08:45:11;96118.63;;;17.55;98.56
20624;BME280;10471;42.736;23.346;2023-10-13T08:47:49;96124.69;;;17.47;98.14
20624;BME280;10471;42.736;23.346;2023-10-13T08:53:35;96112.06;;;17.39;93.37
20624;BME280;10471;42.736;23.346;2023-10-13T08:56:11;96115.94;;;17.33;94.03
20624;BME280;10471;42.736;23.346;2023-10-13T08:58:44;96116.56;;;17.52;98.52
20624;BME280;10471;42.736;23.346;2023-10-13T09:01:26;96102.31;;;17.70;96.70
20624;BME280;10471;42.736;23.346;2023-10-13T09:04:18;96109.78;;;17.81;90.71
20624;BME280;10471;42.736;23.346;2023-10-13T09:06:54;96104.78;;;18.02;89.30
20624;BME280;10471;42.736;23.346;2023-10-13T09:12:12;96108.53;;;18.44;83.50
20624;BME280;10471;42.736;23.346;2023-10-13T09:14:40;96105.81;;;18.66;82.06
20624;BME280;10471;42.736;23.346;2023-10-13T09:17:11;96097.13;;;18.91;82.99
20624;BME280;10471;42.736;23.346;2023-10-13T09:19:47;96099.09;;;19.16;84.52
20624;BME280;10471;42.736;23.346;2023-10-13T09:22:23;96086.91;;;19.49;80.27
20624;BME280;10471;42.736;23.346;2023-10-13T09:25:04;96080.19;;;19.76;72.39
20624;BME280;10471;42.736;23.346;2023-10-13T09:27:31;96082.25;;;19.96;70.64
20624;BME280;10471;42.736;23.346;2023-10-13T09:30:04;96089.63;;;20.16;71.13
20624;BME280;10471;42.736;23.346;2023-10-13T09:32:44;96085.94;;;20.46;72.50
20624;BME280;10471;42.736;23.346;2023-10-13T09:35:19;96083.97;;;20.72;65.20
20624;BME280;10471;42.736;23.346;2023-10-13T09:37:49;96075.47;;;20.70;63.04
20624;BME280;10471;42.736;23.346;2023-10-13T09:40:16;96069.13;;;20.83;65.18
20624;BME280;10471;42.736;23.346;2023-10-13T09:42:52;96069.06;;;21.00;66.95
20624;BME280;10471;42.736;23.346;2023-10-13T09:45:24;96065.75;;;21.03;61.95
20624;BME280;10471;42.736;23.346;2023-10-13T09:47:55;96069.59;;;20.93;61.53
20624;BME280;10471;42.736;23.346;2023-10-13T09:50:36;96068.16;;;20.96;60.16
20624;BME280;10471;42.736;23.346;2023-10-13T09:53:04;96069.91;;;20.92;59.65
20624;BME280;10471;42.736;23.346;2023-10-13T09:55:38;96057.94;;;20.89;61.20
20624;BME280;10471;42.736;23.346;2023-10-13T09:58:11;96060.06;;;21.04;60.23
20624;BME280;10471;42.736;23.346;2023-10-13T10:00:48;96045.59;;;21.25;60.84
20624;BME280;10471;42.736;23.346;2023-10-13T10:03:23;96033.63;;;21.43;57.75
20624;BME280;10471;42.736;23.346;2023-10-13T10:06:01;96040.25;;;21.66;58.71
20624;BME280;10471;42.736;23.346;2023-10-13T10:08:40;96030.31;;;21.87;59.39
20624;BME280;10471;42.736;23.346;2023-10-13T10:14:16;96033.53;;;22.13;53.89
20624;BME280;10471;42.736;23.346;2023-10-13T10:17:07;96036.75;;;22.39;55.07
20624;BME280;10471;42.736;23.346;2023-10-13T10:19:48;96035.25;;;22.61;51.93
20624;BME280;10471;42.736;23.346;2023-10-13T10:22:30;96025.44;;;22.89;53.27
20624;BME280;10471;42.736;23.346;2023-10-13T10:25:05;96021.63;;;23.14;50.19
20624;BME280;10471;42.736;23.346;2023-10-13T10:27:56;96020.72;;;23.22;49.14
20624;BME280;10471;42.736;23.346;2023-10-13T10:30:26;96016.44;;;23.45;48.99
20624;BME280;10471;42.736;23.346;2023-10-13T10:32:56;96012.53;;;23.70;49.37
20624;BME280;10471;42.736;23.346;2023-10-13T10:35:25;96011.22;;;23.76;47.00
20624;BME280;10471;42.736;23.346;2023-10-13T10:41:00;96001.94;;;24.16;48.16
20624;BME280;10471;42.736;23.346;2023-10-13T10:48:37;96004.81;;;24.50;44.98
20624;BME280;10471;42.736;23.346;2023-10-13T10:51:10;95992.72;;;24.75;45.25
20624;BME280;10471;42.736;23.346;2023-10-13T10:53:48;96001.31;;;24.96;44.25
20624;BME280;10471;42.736;23.346;2023-10-13T10:56:19;96005.22;;;25.13;42.65
20624;BME280;10471;42.736;23.346;2023-10-13T10:58:56;95994.59;;;25.20;41.46
20624;BME280;10471;42.736;23.346;2023-10-13T11:01:26;95997.84;;;25.11;41.01
20624;BME280;10471;42.736;23.346;2023-10-13T11:04:02;95989.53;;;25.04;41.56
20624;BME280;10471;42.736;23.346;2023-10-13T11:06:48;95981.63;;;24.95;41.28
20624;BME280;10471;42.736;23.346;2023-10-13T11:09:14;95979.88;;;25.03;41.50
20624;BME280;10471;42.736;23.346;2023-10-13T11:11:52;95982.69;;;25.21;40.65
20624;BME280;10471;42.736;23.346;2023-10-13T11:14:26;95975.69;;;25.20;39.68
20624;BME280;10471;42.736;23.346;2023-10-13T11:16:53;95969.66;;;25.27;40.07
20624;BME280;10471;42.736;23.346;2023-10-13T11:19:34;95975.88;;;25.27;39.89
20624;BME280;10471;42.736;23.346;2023-10-13T11:22:19;95967.69;;;25.24;39.05
20624;BME280;10471;42.736;23.346;2023-10-13T11:25:05;95966.09;;;25.57;38.81
20624;BME280;10471;42.736;23.346;2023-10-13T11:27:40;95962.97;;;25.93;39.62
20624;BME280;10471;42.736;23.346;2023-10-13T11:30:16;95953.84;;;26.20;39.41
20624;BME280;10471;42.736;23.346;2023-10-13T11:33:01;95951.91;;;26.39;39.12
20624;BME280;10471;42.736;23.346;2023-10-13T11:35:40;95952.19;;;26.56;38.46
20624;BME280;10471;42.736;23.346;2023-10-13T11:38:18;95950.69;;;26.18;37.25
20624;BME280;10471;42.736;23.346;2023-10-13T11:46:01;95937.63;;;26.64;37.66
20624;BME280;10471;42.736;23.346;2023-10-13T11:48:40;95941.59;;;26.70;36.20
20624;BME280;10471;42.736;23.346;2023-10-13T11:51:11;95932.22;;;26.64;36.35
20624;BME280;10471;42.736;23.346;2023-10-13T11:53:49;95926.00;;;26.86;37.18
20624;BME280;10471;42.736;23.346;2023-10-13T11:56:17;95931.44;;;27.12;36.76
20624;BME280;10471;42.736;23.346;2023-10-13T11:58:46;95928.69;;;27.38;36.92
20624;BME280;10471;42.736;23.346;2023-10-13T12:01:13;95918.44;;;27.54;35.12
20624;BME280;10471;42.736;23.346;2023-10-13T12:03:42;95927.34;;;27.51;34.07
20624;BME280;10471;42.736;23.346;2023-10-13T12:06:27;95916.34;;;27.40;33.93
20624;BME280;10471;42.736;23.346;2023-10-13T12:09:05;95915.13;;;27.64;35.18
20624;BME280;10471;42.736;23.346;2023-10-13T12:11:45;95906.81;;;27.83;34.21
20624;BME280;10471;42.736;23.346;2023-10-13T12:14:19;95916.97;;;27.92;34.30
20624;BME280;10471;42.736;23.346;2023-10-13T12:16:49;95909.19;;;27.87;33.83
20624;BME280;10471;42.736;23.346;2023-10-13T12:19:22;95907.34;;;27.95;34.21
20624;BME280;10471;42.736;23.346;2023-10-13T12:21:54;95912.44;;;28.03;34.64
20624;BME280;10471;42.736;23.346;2023-10-13T12:24:25;95907.59;;;28.19;34.22
20624;BME280;10471;42.736;23.346;2023-10-13T12:27:04;95907.34;;;28.31;33.39
20624;BME280;10471;42.736;23.346;2023-10-13T12:29:48;95904.34;;;28.43;33.83
20624;BME280;10471;42.736;23.346;2023-10-13T12:32:14;95899.34;;;28.49;35.26
20624;BME280;10471;42.736;23.346;2023-10-13T12:34:40;95896.72;;;28.55;33.51
20624;BME280;10471;42.736;23.346;2023-10-13T12:37:33;95893.16;;;28.48;35.30
20624;BME280;10471;42.736;23.346;2023-10-13T12:40:04;95895.19;;;28.58;34.21
20624;BME280;10471;42.736;23.346;2023-10-13T12:42:48;95892.84;;;28.60;33.22
20624;BME280;10471;42.736;23.346;2023-10-13T12:45:32;95896.59;;;28.45;32.68
20624;BME280;10471;42.736;23.346;2023-10-13T12:48:16;95892.19;;;28.73;33.47
20624;BME280;10471;42.736;23.346;2023-10-13T12:51:01;95895.78;;;28.84;33.10
20624;BME280;10471;42.736;23.346;2023-10-13T12:53:52;95888.91;;;29.01;33.36
20624;BME280;10471;42.736;23.346;2023-10-13T12:56:18;95882.41;;;29.16;33.55
20624;BME280;10471;42.736;23.346;2023-10-13T12:58:51;95887.06;;;29.18;34.37
20624;BME280;10471;42.736;23.346;2023-10-13T13:01:21;95885.88;;;29.13;33.40
20624;BME280;10471;42.736;23.346;2023-10-13T13:03:47;95888.59;;;29.16;33.94
20624;BME280;10471;42.736;23.346;2023-10-13T13:06:18;95884.56;;;28.89;33.44
20624;BME280;10471;42.736;23.346;2023-10-13T13:08:53;95883.06;;;28.99;33.22
20624;BME280;10471;42.736;23.346;2023-10-13T13:11:19;95876.88;;;29.02;32.32
20624;BME280;10471;42.736;23.346;2023-10-13T13:13:45;95880.88;;;29.18;32.01
20624;BME280;10471;42.736;23.346;2023-10-13T13:16:12;95874.66;;;29.21;32.74
20624;BME280;10471;42.736;23.346;2023-10-13T13:18:38;95881.50;;;28.98;32.42
20624;BME280;10471;42.736;23.346;2023-10-13T13:21:04;95875.28;;;28.94;31.75
20624;BME280;10471;42.736;23.346;2023-10-13T13:23:31;95879.94;;;28.90;33.36
20624;BME280;10471;42.736;23.346;2023-10-13T13:25:57;95881.50;;;28.91;34.44
20624;BME280;10471;42.736;23.346;2023-10-13T13:28:22;95885.25;;;28.76;33.74
20624;BME280;10471;42.736;23.346;2023-10-13T13:30:49;95883.75;;;28.82;33.46
20624;BME280;10471;42.736;23.346;2023-10-13T13:33:16;95882.13;;;28.74;33.37
20624;BME280;10471;42.736;23.346;2023-10-13T13:35:42;95884.47;;;28.75;32.95
20624;BME280;10471;42.736;23.346;2023-10-13T13:38:09;95874.19;;;28.52;32.30
20624;BME280;10471;42.736;23.346;2023-10-13T13:40:54;95874.94;;;28.49;32.38
20624;BME280;10471;42.736;23.346;2023-10-13T13:43:23;95878.44;;;28.49;32.49
20624;BME280;10471;42.736;23.346;2023-10-13T13:46:17;95880.31;;;28.42;32.18
20624;BME280;10471;42.736;23.346;2023-10-13T13:48:43;95880.31;;;28.42;32.48